sensor_id;sensor_type;location;lat;lon;timestamp;pressure;altitude;pressure_sealevel;temperature;humidity
72110;BME280;59983;52.010;5.420;2022-11-03T00:01:33;101459.97;;;11.64;75.69
72110;BME280;59983;52.010;5.420;2022-11-03T00:04:00;101459.53;;;11.62;76.10
72110;BME280;59983;52.010;5.420;2022-11-03T00:06:26;101457.94;;;11.61;76.16
72110;BME280;59983;52.010;5.420;2022-11-03T00:08:56;101460.66;;;11.61;76.21
72110;BME280;59983;52.010;5.420;2022-11-03T00:11:23;101463.03;;;11.62;76.10
72110;BME280;59983;52.010;5.420;2022-11-03T00:13:49;101443.69;;;11.64;76.05
72110;BME280;59983;52.010;5.420;2022-11-03T00:16:16;101444.47;;;11.64;75.80
72110;BME280;59983;52.010;5.420;2022-11-03T00:18:42;101437.09;;;11.65;75.96
72110;BME280;59983;52.010;5.420;2022-11-03T00:21:11;101423.88;;;11.63;75.80
72110;BME280;59983;52.010;5.420;2022-11-03T00:23:41;101426.72;;;11.67;75.81
72110;BME280;59983;52.010;5.420;2022-11-03T00:26:16;101416.97;;;11.66;76.00
72110;BME280;59983;52.010;5.420;2022-11-03T00:28:45;101409.63;;;11.67;75.88
72110;BME280;59983;52.010;5.420;2022-11-03T00:31:14;101412.78;;;11.69;75.87
72110;BME280;59983;52.010;5.420;2022-11-03T00:33:42;101419.00;;;11.69;75.83
72110;BME280;59983;52.010;5.420;2022-11-03T00:36:11;101396.13;;;11.70;75.52
72110;BME280;59983;52.010;5.420;2022-11-03T00:38:38;101389.22;;;11.73;75.50
72110;BME280;59983;52.010;5.420;2022-11-03T00:41:05;101392.38;;;11.75;75.32
72110;BME280;59983;52.010;5.420;2022-11-03T00:43:33;101383.44;;;11.74;75.54
72110;BME280;59983;52.010;5.420;2022-11-03T00:46:00;101373.06;;;11.76;75.54
72110;BME280;59983;52.010;5.420;2022-11-03T00:48:27;101378.13;;;11.78;75.19
72110;BME280;59983;52.010;5.420;2022-11-03T00:53:34;101372.34;;;11.79;75.13
72110;BME280;59983;52.010;5.420;2022-11-03T00:56:01;101370.78;;;11.78;75.13
72110;BME280;59983;52.010;5.420;2022-11-03T00:58:27;101373.97;;;11.80;75.35
72110;BME280;59983;52.010;5.420;2022-11-03T01:00:58;101370.91;;;11.82;75.21
72110;BME280;59983;52.010;5.420;2022-11-03T01:03:25;101354.59;;;11.82;75.35
72110;BME280;59983;52.010;5.420;2022-11-03T01:05:51;101370.56;;;11.83;75.21
72110;BME280;59983;52.010;5.420;2022-11-03T01:08:36;101364.69;;;11.81;75.59
72110;BME280;59983;52.010;5.420;2022-11-03T01:11:11;101364.03;;;11.84;75.82
72110;BME280;59983;52.010;5.420;2022-11-03T01:13:57;101360.16;;;11.85;76.02
72110;BME280;59983;52.010;5.420;2022-11-03T01:16:23;101368.31;;;11.85;75.92
72110;BME280;59983;52.010;5.420;2022-11-03T01:18:50;101358.25;;;11.86;76.26
72110;BME280;59983;52.010;5.420;2022-11-03T01:21:17;101349.28;;;11.85;76.32
72110;BME280;59983;52.010;5.420;2022-11-03T01:23:44;101347.72;;;11.84;76.44
72110;BME280;59983;52.010;5.420;2022-11-03T01:26:12;101351.66;;;11.87;76.61
72110;BME280;59983;52.010;5.420;2022-11-03T01:28:42;101338.88;;;11.87;76.72
72110;BME280;59983;52.010;5.420;2022-11-03T01:31:13;101336.16;;;11.87;76.85
72110;BME280;59983;52.010;5.420;2022-11-03T01:33:40;101331.50;;;11.88;76.82
72110;BME280;59983;52.010;5.420;2022-11-03T01:36:08;101333.44;;;11.87;76.93
72110;BME280;59983;52.010;5.420;2022-11-03T01:38:35;101326.84;;;11.88;76.93
72110;BME280;59983;52.010;5.420;2022-11-03T01:41:03;101324.50;;;11.87;76.98
72110;BME280;59983;52.010;5.420;2022-11-03T01:43:30;101324.13;;;11.88;77.07
72110;BME280;59983;52.010;5.420;2022-11-03T01:46:20;101319.84;;;11.87;77.20
72110;BME280;59983;52.010;5.420;2022-11-03T01:49:19;101315.19;;;11.88;77.28
72110;BME280;59983;52.010;5.420;2022-11-03T01:51:52;101297.66;;;11.85;77.33
72110;BME280;59983;52.010;5.420;2022-11-03T01:54:21;101302.28;;;11.85;77.38
72110;BME280;59983;52.010;5.420;2022-11-03T01:56:51;101300.03;;;11.87;77.45
72110;BME280;59983;52.010;5.420;2022-11-03T01:59:20;101294.25;;;11.88;77.62
72110;BME280;59983;52.010;5.420;2022-11-03T02:01:47;101289.50;;;11.85;77.37
72110;BME280;59983;52.010;5.420;2022-11-03T02:04:31;101288.72;;;11.85;77.76
72110;BME280;59983;52.010;5.420;2022-11-03T02:07:09;101282.91;;;11.86;77.73
72110;BME280;59983;52.010;5.420;2022-11-03T02:09:36;101280.56;;;11.85;77.83
72110;BME280;59983;52.010;5.420;2022-11-03T02:12:03;101287.22;;;11.87;77.65
72110;BME280;59983;52.010;5.420;2022-11-03T02:14:41;101284.94;;;11.89;77.89
72110;BME280;59983;52.010;5.420;2022-11-03T02:17:09;101285.28;;;11.88;77.67
72110;BME280;59983;52.010;5.420;2022-11-03T02:19:44;101285.28;;;11.88;77.83
72110;BME280;59983;52.010;5.420;2022-11-03T02:25:15;101272.50;;;11.88;78.31
72110;BME280;59983;52.010;5.420;2022-11-03T02:27:43;101273.28;;;11.89;78.40
72110;BME280;59983;52.010;5.420;2022-11-03T02:30:10;101263.63;;;11.91;78.28
72110;BME280;59983;52.010;5.420;2022-11-03T02:33:00;101266.03;;;11.93;78.34
72110;BME280;59983;52.010;5.420;2022-11-03T02:35:39;101271.13;;;11.95;78.53
72110;BME280;59983;52.010;5.420;2022-11-03T02:38:12;101264.91;;;11.94;78.57
72110;BME280;59983;52.010;5.420;2022-11-03T02:40:47;101259.13;;;11.96;78.66
72110;BME280;59983;52.010;5.420;2022-11-03T02:43:17;101259.47;;;11.94;78.92
72110;BME280;59983;52.010;5.420;2022-11-03T02:45:46;101252.88;;;11.95;78.77
72110;BME280;59983;52.010;5.420;2022-11-03T02:48:14;101244.72;;;11.95;78.91
72110;BME280;59983;52.010;5.420;2022-11-03T02:50:43;101236.22;;;11.97;78.98
72110;BME280;59983;52.010;5.420;2022-11-03T02:53:11;101225.69;;;11.95;79.10
72110;BME280;59983;52.010;5.420;2022-11-03T02:58:34;101220.72;;;11.97;79.00
72110;BME280;59983;52.010;5.420;2022-11-03T03:01:12;101213.69;;;11.96;79.18
72110;BME280;59983;52.010;5.420;2022-11-03T03:03:49;101223.44;;;11.97;79.41
72110;BME280;59983;52.010;5.420;2022-11-03T03:06:22;101221.50;;;11.98;79.27
72110;BME280;59983;52.010;5.420;2022-11-03T03:09:04;101218.88;;;12.01;79.16
72110;BME280;59983;52.010;5.420;2022-11-03T03:11:33;101205.63;;;12.00;79.35
72110;BME280;59983;52.010;5.420;2022-11-03T03:16:47;101196.09;;;12.06;79.22
72110;BME280;59983;52.010;5.420;2022-11-03T03:19:45;101189.16;;;12.08;79.29
72110;BME280;59983;52.010;5.420;2022-11-03T03:22:37;101182.59;;;12.09;79.34
72110;BME280;59983;52.010;5.420;2022-11-03T03:25:17;101185.78;;;12.11;79.09
72110;BME280;59983;52.010;5.420;2022-11-03T03:27:49;101177.69;;;12.15;79.16
72110;BME280;59983;52.010;5.420;2022-11-03T03:30:17;101180.06;;;12.16;79.47
72110;BME280;59983;52.010;5.420;2022-11-03T03:32:47;101175.41;;;12.17;79.31
72110;BME280;59983;52.010;5.420;2022-11-03T03:35:23;101169.31;;;12.20;79.55
72110;BME280;59983;52.010;5.420;2022-11-03T03:37:56;101159.22;;;12.21;79.68
72110;BME280;59983;52.010;5.420;2022-11-03T03:40:33;101162.38;;;12.23;79.42
72110;BME280;59983;52.010;5.420;2022-11-03T03:43:03;101176.41;;;12.25;79.37
72110;BME280;59983;52.010;5.420;2022-11-03T03:45:33;101160.88;;;12.25;79.21
72110;BME280;59983;52.010;5.420;2022-11-03T03:47:59;101157.91;;;12.30;79.35
72110;BME280;59983;52.010;5.420;2022-11-03T03:50:28;101148.63;;;12.31;79.27
72110;BME280;59983;52.010;5.420;2022-11-03T03:52:59;101141.25;;;12.32;79.28
72110;BME280;59983;52.010;5.420;2022-11-03T03:55:33;101160.28;;;12.32;79.42
72110;BME280;59983;52.010;5.420;2022-11-03T03:58:02;101161.78;;;12.29;79.51
72110;BME280;59983;52.010;5.420;2022-11-03T04:00:29;101152.13;;;12.32;79.22
72110;BME280;59983;52.010;5.420;2022-11-03T04:02:56;101154.84;;;12.32;79.25
72110;BME280;59983;52.010;5.420;2022-11-03T04:05:25;101137.72;;;12.31;79.66
72110;BME280;59983;52.010;5.420;2022-11-03T04:07:52;101129.94;;;12.30;79.60
72110;BME280;59983;52.010;5.420;2022-11-03T04:10:20;101146.59;;;12.28;79.89
72110;BME280;59983;52.010;5.420;2022-11-03T04:12:48;101148.06;;;12.26;79.98
72110;BME280;59983;52.010;5.420;2022-11-03T04:15:33;101141.84;;;12.25;79.92
72110;BME280;59983;52.010;5.420;2022-11-03T04:18:28;101148.41;;;12.24;79.88
72110;BME280;59983;52.010;5.420;2022-11-03T04:21:13;101129.38;;;12.24;79.96
72110;BME280;59983;52.010;5.420;2022-11-03T04:23:58;101127.00;;;12.23;79.89
72110;BME280;59983;52.010;5.420;2022-11-03T04:26:27;101129.75;;;12.23;79.90
72110;BME280;59983;52.010;5.420;2022-11-03T04:28:54;101130.88;;;12.22;80.04
72110;BME280;59983;52.010;5.420;2022-11-03T04:31:21;101118.41;;;12.21;80.02
72110;BME280;59983;52.010;5.420;2022-11-03T04:33:48;101118.41;;;12.21;80.06
72110;BME280;59983;52.010;5.420;2022-11-03T04:36:19;101114.91;;;12.20;80.15
72110;BME280;59983;52.010;5.420;2022-11-03T04:38:47;101122.28;;;12.19;80.10
72110;BME280;59983;52.010;5.420;2022-11-03T04:41:27;101109.78;;;12.18;80.39
72110;BME280;59983;52.010;5.420;2022-11-03T04:43:54;101114.81;;;12.16;80.33
72110;BME280;59983;52.010;5.420;2022-11-03T04:46:27;101111.28;;;12.16;80.52
72110;BME280;59983;52.010;5.420;2022-11-03T04:48:57;101100.78;;;12.14;80.39
72110;BME280;59983;52.010;5.420;2022-11-03T04:51:26;101088.75;;;12.15;80.38
72110;BME280;59983;52.010;5.420;2022-11-03T04:54:02;101092.25;;;12.16;80.59
72110;BME280;59983;52.010;5.420;2022-11-03T04:56:29;101092.63;;;12.14;80.45
72110;BME280;59983;52.010;5.420;2022-11-03T04:58:56;101094.09;;;12.12;80.58
72110;BME280;59983;52.010;5.420;2022-11-03T05:01:23;101087.53;;;12.13;80.77
72110;BME280;59983;52.010;5.420;2022-11-03T05:03:53;101080.03;;;12.10;80.74
72110;BME280;59983;52.010;5.420;2022-11-03T05:06:22;101083.91;;;12.09;80.98
72110;BME280;59983;52.010;5.420;2022-11-03T05:08:52;101078.81;;;12.07;81.01
72110;BME280;59983;52.010;5.420;2022-11-03T05:11:30;101074.19;;;12.08;81.06
72110;BME280;59983;52.010;5.420;2022-11-03T05:14:23;101072.59;;;12.07;81.15
72110;BME280;59983;52.010;5.420;2022-11-03T05:16:49;101076.91;;;12.08;81.28
72110;BME280;59983;52.010;5.420;2022-11-03T05:21:53;101066.03;;;12.08;81.56
72110;BME280;59983;52.010;5.420;2022-11-03T05:24:20;101059.78;;;12.07;81.86
72110;BME280;59983;52.010;5.420;2022-11-03T05:26:53;101054.72;;;12.06;81.79
72110;BME280;59983;52.010;5.420;2022-11-03T05:29:24;101047.00;;;12.08;81.79
72110;BME280;59983;52.010;5.420;2022-11-03T05:31:52;101038.03;;;12.07;82.21
72110;BME280;59983;52.010;5.420;2022-11-03T05:34:40;101035.75;;;12.09;82.19
72110;BME280;59983;52.010;5.420;2022-11-03T05:39:36;101028.38;;;12.10;82.08
72110;BME280;59983;52.010;5.420;2022-11-03T05:44:50;101025.34;;;12.11;82.28
72110;BME280;59983;52.010;5.420;2022-11-03T05:47:22;101022.28;;;12.13;82.46
72110;BME280;59983;52.010;5.420;2022-11-03T05:49:52;101011.81;;;12.15;82.36
72110;BME280;59983;52.010;5.420;2022-11-03T05:52:21;101021.19;;;12.17;82.59
72110;BME280;59983;52.010;5.420;2022-11-03T05:54:50;101003.75;;;12.18;82.73
72110;BME280;59983;52.010;5.420;2022-11-03T05:57:17;101014.63;;;12.18;82.74
72110;BME280;59983;52.010;5.420;2022-11-03T05:59:46;101010.78;;;12.19;82.79
72110;BME280;59983;52.010;5.420;2022-11-03T06:02:34;101008.50;;;12.22;82.76
72110;BME280;59983;52.010;5.420;2022-11-03T06:05:09;101016.28;;;12.23;82.82
72110;BME280;59983;52.010;5.420;2022-11-03T06:07:36;101009.34;;;12.26;83.02
72110;BME280;59983;52.010;5.420;2022-11-03T06:15:50;100995.41;;;12.27;83.06
72110;BME280;59983;52.010;5.420;2022-11-03T06:18:21;100993.47;;;12.28;83.17
72110;BME280;59983;52.010;5.420;2022-11-03T06:20:51;100991.56;;;12.28;82.86
72110;BME280;59983;52.010;5.420;2022-11-03T06:23:19;100995.50;;;12.31;82.89
72110;BME280;59983;52.010;5.420;2022-11-03T06:25:46;100989.63;;;12.29;82.95
72110;BME280;59983;52.010;5.420;2022-11-03T06:28:17;100988.84;;;12.28;83.17
72110;BME280;59983;52.010;5.420;2022-11-03T06:30:46;100978.41;;;12.30;83.23
72110;BME280;59983;52.010;5.420;2022-11-03T06:33:33;100971.03;;;12.31;83.30
72110;BME280;59983;52.010;5.420;2022-11-03T06:36:15;100981.97;;;12.34;83.33
72110;BME280;59983;52.010;5.420;2022-11-03T06:38:50;100970.75;;;12.36;83.39
72110;BME280;59983;52.010;5.420;2022-11-03T06:41:25;100959.44;;;12.34;83.21
72110;BME280;59983;52.010;5.420;2022-11-03T06:43:53;100963.28;;;12.33;83.47
72110;BME280;59983;52.010;5.420;2022-11-03T06:46:24;100964.09;;;12.33;83.63
72110;BME280;59983;52.010;5.420;2022-11-03T06:48:53;100962.50;;;12.32;83.70
72110;BME280;59983;52.010;5.420;2022-11-03T06:51:23;100961.72;;;12.32;83.71
72110;BME280;59983;52.010;5.420;2022-11-03T06:53:52;100960.16;;;12.31;83.71
72110;BME280;59983;52.010;5.420;2022-11-03T06:56:21;100964.00;;;12.30;83.76
72110;BME280;59983;52.010;5.420;2022-11-03T06:58:51;100960.84;;;12.28;83.93
72110;BME280;59983;52.010;5.420;2022-11-03T07:01:38;100958.22;;;12.31;83.85
72110;BME280;59983;52.010;5.420;2022-11-03T07:04:14;100953.91;;;12.30;83.80
72110;BME280;59983;52.010;5.420;2022-11-03T07:06:42;100960.50;;;12.29;84.12
72110;BME280;59983;52.010;5.420;2022-11-03T07:09:18;100953.13;;;12.30;84.05
72110;BME280;59983;52.010;5.420;2022-11-03T07:14:21;100959.00;;;12.32;84.33
72110;BME280;59983;52.010;5.420;2022-11-03T07:16:53;100959.44;;;12.34;84.36
72110;BME280;59983;52.010;5.420;2022-11-03T07:19:28;100968.38;;;12.34;84.35
72110;BME280;59983;52.010;5.420;2022-11-03T07:22:05;100958.75;;;12.37;84.41
72110;BME280;59983;52.010;5.420;2022-11-03T07:24:43;100970.06;;;12.39;84.51
72110;BME280;59983;52.010;5.420;2022-11-03T07:29:47;100952.66;;;12.43;84.39
72110;BME280;59983;52.010;5.420;2022-11-03T07:32:18;100954.69;;;12.46;84.58
72110;BME280;59983;52.010;5.420;2022-11-03T07:34:46;100946.94;;;12.48;84.45
72110;BME280;59983;52.010;5.420;2022-11-03T07:37:17;100946.22;;;12.52;84.43
72110;BME280;59983;52.010;5.420;2022-11-03T07:39:45;100944.28;;;12.52;84.33
72110;BME280;59983;52.010;5.420;2022-11-03T07:42:23;100954.81;;;12.54;84.50
72110;BME280;59983;52.010;5.420;2022-11-03T07:44:51;100944.38;;;12.56;84.29
72110;BME280;59983;52.010;5.420;2022-11-03T07:47:19;100940.88;;;12.55;84.09
72110;BME280;59983;52.010;5.420;2022-11-03T07:49:47;100937.44;;;12.58;84.07
72110;BME280;59983;52.010;5.420;2022-11-03T07:52:15;100942.53;;;12.60;84.13
72110;BME280;59983;52.010;5.420;2022-11-03T07:54:45;100930.06;;;12.59;84.15
72110;BME280;59983;52.010;5.420;2022-11-03T07:57:17;100939.06;;;12.63;84.18
72110;BME280;59983;52.010;5.420;2022-11-03T07:59:47;100936.03;;;12.64;84.25
72110;BME280;59983;52.010;5.420;2022-11-03T08:02:35;100931.78;;;12.67;84.05
72110;BME280;59983;52.010;5.420;2022-11-03T08:05:03;100934.94;;;12.69;83.85
72110;BME280;59983;52.010;5.420;2022-11-03T08:07:29;100938.09;;;12.71;83.71
72110;BME280;59983;52.010;5.420;2022-11-03T08:09:56;100928.44;;;12.73;83.90
72110;BME280;59983;52.010;5.420;2022-11-03T08:12:23;100931.59;;;12.75;83.83
72110;BME280;59983;52.010;5.420;2022-11-03T08:14:50;100930.44;;;12.76;83.73
72110;BME280;59983;52.010;5.420;2022-11-03T08:17:16;100927.72;;;12.76;83.87
72110;BME280;59983;52.010;5.420;2022-11-03T08:19:43;100919.28;;;12.82;83.80
72110;BME280;59983;52.010;5.420;2022-11-03T08:22:09;100912.22;;;12.81;83.62
72110;BME280;59983;52.010;5.420;2022-11-03T08:24:36;100920.50;;;12.84;83.58
72110;BME280;59983;52.010;5.420;2022-11-03T08:27:02;100910.81;;;12.87;83.31
72110;BME280;59983;52.010;5.420;2022-11-03T08:29:30;100909.75;;;12.91;83.48
72110;BME280;59983;52.010;5.420;2022-11-03T08:31:56;100902.06;;;12.97;83.66
72110;BME280;59983;52.010;5.420;2022-11-03T08:34:23;100893.19;;;13.00;83.39
72110;BME280;59983;52.010;5.420;2022-11-03T08:36:49;100878.44;;;13.01;82.99
72110;BME280;59983;52.010;5.420;2022-11-03T08:39:16;100868.75;;;13.03;83.01
72110;BME280;59983;52.010;5.420;2022-11-03T08:41:43;100861.34;;;13.04;82.69
72110;BME280;59983;52.010;5.420;2022-11-03T08:44:09;100864.88;;;13.04;82.22
72110;BME280;59983;52.010;5.420;2022-11-03T08:46:36;100856.78;;;13.08;82.76
72110;BME280;59983;52.010;5.420;2022-11-03T08:49:02;100852.91;;;13.09;82.51
72110;BME280;59983;52.010;5.420;2022-11-03T08:51:29;100847.47;;;13.09;82.28
72110;BME280;59983;52.010;5.420;2022-11-03T08:53:55;100825.69;;;13.09;82.48
72110;BME280;59983;52.010;5.420;2022-11-03T08:56:22;100834.25;;;13.11;82.14
72110;BME280;59983;52.010;5.420;2022-11-03T08:58:49;100831.19;;;13.13;82.01
72110;BME280;59983;52.010;5.420;2022-11-03T09:01:15;100818.75;;;13.15;82.00
72110;BME280;59983;52.010;5.420;2022-11-03T09:03:42;100820.06;;;13.21;82.00
72110;BME280;59983;52.010;5.420;2022-11-03T09:06:08;100819.69;;;13.23;81.47
72110;BME280;59983;52.010;5.420;2022-11-03T09:08:35;100803.34;;;13.23;81.61
72110;BME280;59983;52.010;5.420;2022-11-03T09:11:22;100799.56;;;13.27;81.67
72110;BME280;59983;52.010;5.420;2022-11-03T09:13:48;100784.03;;;13.31;81.51
72110;BME280;59983;52.010;5.420;2022-11-03T09:16:15;100781.31;;;13.31;81.49
72110;BME280;59983;52.010;5.420;2022-11-03T09:18:42;100774.00;;;13.36;81.18
72110;BME280;59983;52.010;5.420;2022-11-03T09:21:09;100765.84;;;13.36;81.18
72110;BME280;59983;52.010;5.420;2022-11-03T09:23:35;100756.97;;;13.42;81.08
72110;BME280;59983;52.010;5.420;2022-11-03T09:26:02;100750.44;;;13.47;81.24
72110;BME280;59983;52.010;5.420;2022-11-03T09:28:28;100739.22;;;13.52;81.09
72110;BME280;59983;52.010;5.420;2022-11-03T09:30:54;100733.44;;;13.57;80.94
72110;BME280;59983;52.010;5.420;2022-11-03T09:33:21;100729.97;;;13.60;80.67
72110;BME280;59983;52.010;5.420;2022-11-03T09:35:47;100721.88;;;13.64;80.65
72110;BME280;59983;52.010;5.420;2022-11-03T09:38:14;100723.06;;;13.66;79.99
72110;BME280;59983;52.010;5.420;2022-11-03T09:40:40;100714.94;;;13.70;80.14
72110;BME280;59983;52.010;5.420;2022-11-03T09:43:07;100705.28;;;13.76;79.83
72110;BME280;59983;52.010;5.420;2022-11-03T09:45:34;100708.06;;;13.79;79.88
72110;BME280;59983;52.010;5.420;2022-11-03T09:48:00;100694.88;;;13.85;79.56
72110;BME280;59983;52.010;5.420;2022-11-03T09:50:27;100693.38;;;13.87;79.39
72110;BME280;59983;52.010;5.420;2022-11-03T09:52:55;100686.03;;;13.95;78.91
72110;BME280;59983;52.010;5.420;2022-11-03T09:55:25;100681.03;;;13.97;78.59
72110;BME280;59983;52.010;5.420;2022-11-03T09:58:00;100677.53;;;14.00;78.27
72110;BME280;59983;52.010;5.420;2022-11-03T10:00:27;100682.25;;;14.03;77.89
72110;BME280;59983;52.010;5.420;2022-11-03T10:02:54;100675.22;;;14.02;77.97
72110;BME280;59983;52.010;5.420;2022-11-03T10:05:26;100673.28;;;14.03;77.71
72110;BME280;59983;52.010;5.420;2022-11-03T10:07:58;100658.47;;;14.04;77.77
72110;BME280;59983;52.010;5.420;2022-11-03T10:10:26;100658.47;;;14.04;77.60
72110;BME280;59983;52.010;5.420;2022-11-03T10:12:53;100660.88;;;14.05;77.50
72110;BME280;59983;52.010;5.420;2022-11-03T10:15:22;100645.63;;;14.04;77.20
72110;BME280;59983;52.010;5.420;2022-11-03T10:17:50;100644.50;;;14.05;77.71
72110;BME280;59983;52.010;5.420;2022-11-03T10:20:19;100635.09;;;14.03;76.88
72110;BME280;59983;52.010;5.420;2022-11-03T10:22:50;100631.97;;;14.01;77.14
72110;BME280;59983;52.010;5.420;2022-11-03T10:25:43;100639.78;;;14.02;77.26
72110;BME280;59983;52.010;5.420;2022-11-03T10:28:21;100629.66;;;14.03;77.16
72110;BME280;59983;52.010;5.420;2022-11-03T10:31:02;100629.66;;;14.03;76.98
72110;BME280;59983;52.010;5.420;2022-11-03T10:33:51;100629.66;;;14.03;76.89
72110;BME280;59983;52.010;5.420;2022-11-03T10:38:46;100616.38;;;14.01;76.09
72110;BME280;59983;52.010;5.420;2022-11-03T10:43:54;100608.25;;;14.05;76.15
72110;BME280;59983;52.010;5.420;2022-11-03T10:46:24;100598.53;;;14.07;76.48
72110;BME280;59983;52.010;5.420;2022-11-03T10:49:15;100580.59;;;14.06;76.22
72110;BME280;59983;52.010;5.420;2022-11-03T10:51:46;100574.41;;;14.13;76.01
72110;BME280;59983;52.010;5.420;2022-11-03T10:54:15;100566.22;;;14.13;75.48
72110;BME280;59983;52.010;5.420;2022-11-03T10:56:44;100571.75;;;14.16;75.77
72110;BME280;59983;52.010;5.420;2022-11-03T10:59:22;100554.59;;;14.20;75.96
72110;BME280;59983;52.010;5.420;2022-11-03T11:01:49;100558.94;;;14.24;76.00
72110;BME280;59983;52.010;5.420;2022-11-03T11:04:18;100547.66;;;14.26;75.31
72110;BME280;59983;52.010;5.420;2022-11-03T11:06:46;100545.72;;;14.30;75.48
72110;BME280;59983;52.010;5.420;2022-11-03T11:09:21;100551.19;;;14.30;75.03
72110;BME280;59983;52.010;5.420;2022-11-03T11:12:13;100565.66;;;14.34;75.07
72110;BME280;59983;52.010;5.420;2022-11-03T11:14:58;100553.59;;;14.35;74.61
72110;BME280;59983;52.010;5.420;2022-11-03T11:17:45;100549.31;;;14.37;74.26
72110;BME280;59983;52.010;5.420;2022-11-03T11:20:27;100550.13;;;14.41;74.32
72110;BME280;59983;52.010;5.420;2022-11-03T11:22:54;100541.94;;;14.41;74.49
72110;BME280;59983;52.010;5.420;2022-11-03T11:28:25;100540.91;;;14.57;74.62
72110;BME280;59983;52.010;5.420;2022-11-03T11:33:23;100520.72;;;14.72;73.16
72110;BME280;59983;52.010;5.420;2022-11-03T11:41:14;100516.16;;;14.87;72.61
72110;BME280;59983;52.010;5.420;2022-11-03T11:43:41;100513.41;;;14.87;71.90
72110;BME280;59983;52.010;5.420;2022-11-03T11:46:34;100491.97;;;14.89;71.94
72110;BME280;59983;52.010;5.420;2022-11-03T11:51:33;100488.88;;;14.97;72.55
72110;BME280;59983;52.010;5.420;2022-11-03T11:53:59;100472.50;;;15.01;71.62
72110;BME280;59983;52.010;5.420;2022-11-03T11:56:45;100462.41;;;15.05;71.60
72110;BME280;59983;52.010;5.420;2022-11-03T11:59:18;100454.59;;;15.07;71.66
72110;BME280;59983;52.010;5.420;2022-11-03T12:01:53;100454.22;;;15.12;71.42
72110;BME280;59983;52.010;5.420;2022-11-03T12:04:23;100444.47;;;15.15;70.45
72110;BME280;59983;52.010;5.420;2022-11-03T12:06:52;100451.88;;;15.14;70.57
72110;BME280;59983;52.010;5.420;2022-11-03T12:09:20;100428.88;;;15.12;70.78
72110;BME280;59983;52.010;5.420;2022-11-03T12:11:51;100418.31;;;15.14;70.89
72110;BME280;59983;52.010;5.420;2022-11-03T12:14:42;100409.75;;;15.12;70.56
72110;BME280;59983;52.010;5.420;2022-11-03T12:19:51;100399.16;;;15.10;70.71
72110;BME280;59983;52.010;5.420;2022-11-03T12:24:51;100370.31;;;15.16;70.07
72110;BME280;59983;52.010;5.420;2022-11-03T12:29:58;100378.16;;;15.32;70.63
72110;BME280;59983;52.010;5.420;2022-11-03T12:32:25;100376.19;;;15.36;69.77
72110;BME280;59983;52.010;5.420;2022-11-03T12:34:59;100369.19;;;15.49;69.60
72110;BME280;59983;52.010;5.420;2022-11-03T12:37:26;100371.56;;;15.62;68.49
72110;BME280;59983;52.010;5.420;2022-11-03T12:39:52;100367.69;;;15.66;68.78
72110;BME280;59983;52.010;5.420;2022-11-03T12:42:19;100360.63;;;15.72;68.29
72110;BME280;59983;52.010;5.420;2022-11-03T12:44:46;100369.22;;;15.78;67.96
72110;BME280;59983;52.010;5.420;2022-11-03T12:47:12;100360.63;;;15.72;67.86
72110;BME280;59983;52.010;5.420;2022-11-03T12:49:39;100358.31;;;15.64;68.03
72110;BME280;59983;52.010;5.420;2022-11-03T12:52:05;100348.91;;;15.57;68.29
72110;BME280;59983;52.010;5.420;2022-11-03T12:54:34;100345.78;;;15.63;67.58
72110;BME280;59983;52.010;5.420;2022-11-03T12:57:00;100339.53;;;15.76;66.89
72110;BME280;59983;52.010;5.420;2022-11-03T12:59:27;100331.72;;;15.82;65.88
72110;BME280;59983;52.010;5.420;2022-11-03T13:01:54;100323.13;;;15.80;66.28
72110;BME280;59983;52.010;5.420;2022-11-03T13:04:21;100315.69;;;15.88;67.15
72110;BME280;59983;52.010;5.420;2022-11-03T13:06:47;100309.84;;;15.85;66.89
72110;BME280;59983;52.010;5.420;2022-11-03T13:09:14;100300.88;;;15.67;66.84
72110;BME280;59983;52.010;5.420;2022-11-03T13:11:40;100298.13;;;15.53;66.78
72110;BME280;59983;52.010;5.420;2022-11-03T13:14:25;100293.44;;;15.43;67.07
72110;BME280;59983;52.010;5.420;2022-11-03T13:16:52;100295.78;;;15.41;67.43
72110;BME280;59983;52.010;5.420;2022-11-03T13:19:18;100286.41;;;15.49;67.84
72110;BME280;59983;52.010;5.420;2022-11-03T13:21:45;100275.84;;;15.54;67.04
72110;BME280;59983;52.010;5.420;2022-11-03T13:24:12;100279.00;;;15.56;67.03
72110;BME280;59983;52.010;5.420;2022-11-03T13:26:38;100274.28;;;15.53;66.88
72110;BME280;59983;52.010;5.420;2022-11-03T13:29:04;100267.66;;;15.51;67.78
72110;BME280;59983;52.010;5.420;2022-11-03T13:31:31;100262.97;;;15.51;67.26
72110;BME280;59983;52.010;5.420;2022-11-03T13:33:57;100255.16;;;15.50;67.49
72110;BME280;59983;52.010;5.420;2022-11-03T13:36:24;100245.81;;;15.47;68.07
72110;BME280;59983;52.010;5.420;2022-11-03T13:38:51;100232.94;;;15.48;68.25
72110;BME280;59983;52.010;5.420;2022-11-03T13:41:17;100212.25;;;15.47;68.83
72110;BME280;59983;52.010;5.420;2022-11-03T13:43:44;100223.56;;;15.49;68.65
72110;BME280;59983;52.010;5.420;2022-11-03T13:46:10;100222.75;;;15.52;68.33
72110;BME280;59983;52.010;5.420;2022-11-03T13:48:38;100220.78;;;15.52;68.67
72110;BME280;59983;52.010;5.420;2022-11-03T13:51:24;100212.63;;;15.49;68.97
72110;BME280;59983;52.010;5.420;2022-11-03T13:53:51;100223.53;;;15.45;68.92
72110;BME280;59983;52.010;5.420;2022-11-03T13:56:37;100217.69;;;15.43;68.41
72110;BME280;59983;52.010;5.420;2022-11-03T13:59:24;100213.81;;;15.37;68.52
72110;BME280;59983;52.010;5.420;2022-11-03T14:01:51;100212.25;;;15.33;68.18
72110;BME280;59983;52.010;5.420;2022-11-03T14:04:38;100199.38;;;15.26;68.62
72110;BME280;59983;52.010;5.420;2022-11-03T14:07:10;100182.59;;;15.24;69.30